DW0723 Weather Reports


Display with metric or nautical units.
time (UTC)temp
F
wind
direction
speed
MPH
gust
MPH
rain 1hr
in
rain 24hr
in
rain mn
in
humidity
%
barometer
mb
20190625065944 60 171 0.0 0.0 0.00 0.58 0.00 97 1002.7
20190625062944 60 146 0.0 0.0 0.00 0.58 0.00 97 1002.7
20190625055944 60 183 0.0 0.0 0.00 0.58 0.00 97 1002.6
20190625052944 60 205 0.0 0.0 0.00 0.58 0.00 97 1002.4
20190625045944 61 227 0.0 0.0 0.00 0.58 0.00 97 1002.0
20190625042944 61 182 0.0 0.0 0.00 0.58 0.58 97 1001.9
20190625035945 61 180 0.0 0.0 0.00 0.58 0.58 97 1001.7
20190625032944 62 178 0.0 0.0 0.00 0.58 0.58 97 1001.5
20190625025943 62 178 0.0 0.0 0.01 0.58 0.58 97 1001.1
20190625022944 62 178 0.0 0.0 0.02 0.58 0.58 97 1000.9
20190625015943 63 178 0.0 0.0 0.11 0.57 0.57 97 1000.3
20190625012943 64 198 0.0 0.0 0.10 0.56 0.56 97 999.9
20190625005944 65 183 0.0 0.0 0.00 0.46 0.46 97 999.6
20190625002943 65 192 0.0 0.0 0.00 0.46 0.46 97 999.2
20190624235944 65 192 0.0 0.0 0.00 0.46 0.46 97 998.7
20190624232943 65 192 0.0 0.0 0.00 0.46 0.46 97 998.9
20190624225943 65 191 0.0 0.0 0.00 0.46 0.46 97 998.8
20190624222940 65 192 0.0 0.0 0.02 0.46 0.46 97 998.6
20190624215940 65 192 0.0 0.0 0.08 0.46 0.46 97 998.7
20190624212940 65 192 0.0 0.0 0.20 0.44 0.44 96 999.0
20190624205940 64 192 0.0 0.0 0.17 0.38 0.38 95 998.8
20190624202940 64 192 0.0 0.0 0.07 0.24 0.24 94 998.8
20190624195940 65 193 0.0 0.0 0.15 0.21 0.21 94 998.6
20190624192940 65 193 0.0 0.0 0.11 0.17 0.17 92 998.5
20190624185940 69 360 0.0 0.0 0.00 0.06 0.06 94 998.7
20190624182940 69 360 0.0 0.0 0.00 0.06 0.06 94 998.7
20190624175940 69 360 0.0 0.0 0.00 0.06 0.06 95 998.7
20190624172940 69 360 0.0 0.0 0.02 0.06 0.06 94 998.4
20190624165940 69 360 0.0 0.0 0.02 0.06 0.06 92 998.5
20190624162940 70 360 0.0 0.0 0.00 0.04 0.04 92 1000.1
20190624155942 70 360 0.0 0.0 0.01 0.04 0.04 95 999.6
20190624152940 70 5 0.0 0.0 0.02 0.04 0.04 97 999.5
20190624145940 69 5 0.0 0.0 0.02 0.03 0.03 98 999.6
20190624142940 68 5 0.0 0.0 0.02 0.02 0.02 98 999.9
20190624135940 68 5 0.0 0.0 0.01 0.01 0.01 97 999.8
20190624132940 67 325 0.0 0.0 0.00 0.00 0.00 97 999.8
20190624125940 66 142 0.0 0.0 0.00 0.00 0.00 97 1000.2
20190624122940 66 242 0.0 0.0 0.00 0.00 0.00 97 1000.2
20190624115940 65 305 0.0 0.0 0.00 0.00 0.00 97 1000.2
20190624112940 65 167 0.0 0.0 0.00 0.00 0.00 96 1000.1
20190624105940 65 117 0.0 0.0 0.00 0.00 0.00 96 1000.1
20190624102939 65 117 0.0 0.0 0.00 0.00 0.00 96 1000.1
20190624095940 65 56 0.0 0.0 0.00 0.00 0.00 96 1000.3
20190624092940 65 56 0.0 0.0 0.00 0.00 0.00 96 1000.3
20190624085939 66 56 0.0 0.0 0.00 0.00 0.00 96 1000.6
20190624082940 67 56 0.0 0.0 0.00 0.00 0.00 96 1000.9
20190624075940 67 56 0.0 0.0 0.00 0.00 0.00 96 1001.0
20190624072939 67 56 0.0 0.0 0.00 0.00 0.00 96 1001.2